ADDS METAR Data INFO
IDs: Format: Raw Decoded Include TAF

Data at: 0840 UTC 21 Oct 2017

K5A6 210835Z AUTO 00000KT 10SM CLR 14/14 A3009 RMK AO2 T01400136
K5A6 210815Z AUTO 00000KT 10SM CLR 15/13 A3010 RMK AO2 T01460134
K5A6 210755Z AUTO 00000KT 10SM CLR 15/14 A3010 RMK AO2 T01540137
K5A6 210735Z AUTO 00000KT 10SM CLR 16/14 A3010 RMK AO2 T01600140
K5A6 210715Z AUTO 00000KT 10SM CLR 16/14 A3010 RMK AO2 T01630141
K5A6 210655Z AUTO 00000KT 10SM CLR 16/14 A3010 RMK AO2 T01640142
K5A6 210635Z AUTO 00000KT 10SM CLR 17/14 A3010 RMK AO2 T01670143
K5A6 210610Z AUTO 00000KT 10SM CLR 17/15 A3011 RMK AO2 T01670145
K5A6 210550Z AUTO 00000KT 10SM CLR 17/15 A3011 RMK AO2 T01660147 10187 20161 402600070
K5A6 210535Z AUTO 00000KT 10SM CLR 17/15 A3012 RMK AO2 T01700147
K5A6 210515Z AUTO 00000KT 10SM CLR 17/15 A3012 RMK AO2 T01740148
K5A6 210455Z AUTO 00000KT 10SM CLR 18/15 A3011 RMK AO2 T01750150
K5A6 210435Z AUTO 00000KT 10SM CLR 17/15 A3012 RMK AO2 T01740150
K5A6 210415Z AUTO 00000KT 10SM CLR 18/15 A3012 RMK AO2 T01750150
K5A6 210355Z AUTO 00000KT 10SM CLR 18/15 A3012 RMK AO2 T01770150
K5A6 210335Z AUTO 00000KT 10SM CLR 18/15 A3012 RMK AO2 T01800150
K5A6 210315Z AUTO 00000KT 10SM CLR 18/15 A3012 RMK AO2 T01810150
K5A6 210255Z AUTO 00000KT 10SM CLR 18/15 A3012 RMK AO2 T01820150
K5A6 210235Z AUTO 00000KT 10SM CLR 18/15 A3011 RMK AO2 T01840152
K5A6 210215Z AUTO 00000KT 10SM CLR 18/15 A3011 RMK AO2 T01840152
K5A6 210155Z AUTO 00000KT 10SM CLR 17/15 A3011 RMK AO2 T01740153
K5A6 210135Z AUTO 00000KT 10SM CLR 16/16 A3011 RMK AO2 T01620156
K5A6 210115Z AUTO 00000KT 10SM CLR 17/16 A3011 RMK AO2 T01660159
K5A6 210055Z AUTO 00000KT 10SM CLR 17/16 A3012 RMK AO2 T01710160
K5A6 210035Z AUTO 00000KT 10SM CLR 18/16 A3011 RMK AO2 T01750161
K5A6 210010Z AUTO 00000KT 10SM CLR 18/16 A3011 RMK AO2 T01820162
K5A6 202355Z AUTO 00000KT 10SM CLR 18/17 A3011 RMK AO2 T01830165 10260 20182
K5A6 202335Z AUTO 00000KT 10SM CLR 20/16 A3011 RMK AO2 T01960161
K5A6 202315Z AUTO 00000KT 10SM CLR 22/15 A3010 RMK AO2 T02200153
K5A6 202255Z AUTO 00000KT 10SM CLR 22/15 A3010 RMK AO2 T02220153
K5A6 202235Z AUTO 00000KT 10SM CLR 23/15 A3010 RMK AO2 LTG DSNT SW T02310150
K5A6 202215Z AUTO 00000KT 10SM CLR 24/15 A3010 RMK AO2 T02380148
K5A6 202155Z AUTO 14003KT 10SM CLR 24/14 A3010 RMK AO2 T02430143
K5A6 202135Z AUTO 13004KT 10SM CLR 25/14 A3010 RMK AO2 T02500139
K5A6 202115Z AUTO 10003KT 10SM CLR 25/14 A3011 RMK AO2 T02520136
K5A6 202055Z AUTO 16005KT 10SM CLR 26/13 A3011 RMK AO2 LTG DSNT SW T02580131
K5A6 202030Z AUTO 15005KT 10SM CLR 26/14 A3012 RMK AO2 LTG DSNT SW T02570137
K5A6 202015Z AUTO 13004KT 10SM CLR 25/14 A3012 RMK AO2 T02540138
K5A6 201955Z AUTO 00000KT 10SM SCT047 25/15 A3012 RMK AO2 T02510152
K5A6 201935Z AUTO 00000KT 10SM SCT041 25/15 A3013 RMK AO2 T02460152
K5A6 201915Z AUTO 09005KT 10SM SCT039 24/15 A3013 RMK AO2 T02440151
K5A6 201855Z AUTO 00000KT 10SM CLR 25/15 A3015 RMK AO2 T02450153
K5A6 201835Z AUTO 14004KT 10SM CLR 24/15 A3016 RMK AO2 T02420150
K5A6 201815Z AUTO 13004KT 10SM CLR 24/15 A3018 RMK AO2 T02350151
K5A6 201755Z AUTO 14003KT 10SM CLR 23/15 A3019 RMK AO2 T02300153 10230 20070
K5A6 201735Z AUTO 00000KT 10SM CLR 22/15 A3020 RMK AO2 T02240149
K5A6 201715Z AUTO 12003KT 10SM CLR 23/15 A3021 RMK AO2 T02250148
K5A6 201655Z AUTO 09003KT 10SM CLR 23/15 A3022 RMK AO2 T02280148
K5A6 201635Z AUTO 08003KT 10SM CLR 22/15 A3022 RMK AO2 LTG DSNT SW T02240145
K5A6 201615Z AUTO 00000KT 10SM CLR 22/15 A3023 RMK AO2 T02240145
K5A6 201555Z AUTO 00000KT 10SM CLR 21/14 A3024 RMK AO2 T02100142
K5A6 201535Z AUTO 16003KT 10SM CLR 19/14 A3025 RMK AO2 T01900135
K5A6 201515Z AUTO 14003KT 10SM CLR 17/13 A3025 RMK AO2 T01740131
K5A6 201455Z AUTO 14003KT 10SM CLR 16/13 A3026 RMK AO2 T01640129
K5A6 201435Z AUTO 00000KT 10SM CLR 15/13 A3026 RMK AO2 T01510127
K5A6 201415Z AUTO 06003KT 10SM CLR 14/13 A3025 RMK AO2 T01370130
K5A6 201355Z AUTO 00000KT 10SM CLR 12/12 A3026 RMK AO2 T01230123
K5A6 201335Z AUTO 00000KT 10SM CLR 11/11 A3025 RMK AO2 T01100110
K5A6 201315Z AUTO 00000KT 10SM CLR 09/09 A3025 RMK AO2 T00940094
K5A6 201255Z AUTO 00000KT 7SM CLR 08/08 A3024 RMK AO2 T00790079
K5A6 201235Z AUTO 00000KT 10SM CLR 07/07 A3023 RMK AO2 LTG DSNT SW T00740074
K5A6 201215Z AUTO 00000KT 10SM CLR 07/07 A3023 RMK AO2 T00710071
K5A6 201155Z AUTO 00000KT 10SM CLR 07/07 A3023 RMK AO2 T00720072 10095 20071
K5A6 201135Z AUTO 00000KT 10SM CLR 08/08 A3023 RMK AO2 T00750075
K5A6 201115Z AUTO 00000KT 10SM CLR 08/08 A3022 RMK AO2 T00750075
K5A6 201055Z AUTO 00000KT 10SM CLR 07/07 A3021 RMK AO2 T00740074
K5A6 201035Z AUTO 00000KT 10SM CLR 08/08 A3021 RMK AO2 T00800080
K5A6 201015Z AUTO 00000KT 10SM CLR 08/08 A3021 RMK AO2 T00780078
K5A6 200955Z AUTO 00000KT 10SM CLR 08/08 A3020 RMK AO2 T00780078
K5A6 200935Z AUTO 00000KT 10SM CLR 08/08 A3021 RMK AO2 T00760076
K5A6 200915Z AUTO 00000KT 10SM CLR 08/08 A3021 RMK AO2 T00800080
K5A6 200855Z AUTO 00000KT 10SM CLR 08/08 A3022 RMK AO2 T00810081
K5A6 200835Z AUTO 00000KT 10SM CLR 08/08 A3022 RMK AO2 T00830083
K5A6 200815Z AUTO 00000KT 10SM CLR 08/08 A3022 RMK AO2 T00830083
K5A6 200755Z AUTO 00000KT 10SM CLR 09/09 A3022 RMK AO2 T00850085
K5A6 200735Z AUTO 00000KT 10SM CLR 08/08 A3022 RMK AO2 T00840084
K5A6 200715Z AUTO 00000KT 3SM BR CLR 09/09 A3022 RMK AO2 T00860086
K5A6 200655Z AUTO 00000KT 10SM CLR 09/09 A3022 RMK AO2 T00890089
K5A6 200635Z AUTO 00000KT 10SM CLR 09/09 A3022 RMK AO2 T00920092
K5A6 200615Z AUTO 00000KT 10SM CLR 09/09 A3021 RMK AO2 T00930093
K5A6 200555Z AUTO 00000KT 10SM CLR 09/09 A3021 RMK AO2 T00920092 10182 20092 402550048
K5A6 200535Z AUTO 00000KT 10SM CLR 10/10 A3021 RMK AO2 T00990099
K5A6 200515Z AUTO 04003KT 10SM CLR 10/10 A3021 RMK AO2 T01000100
K5A6 200455Z AUTO 00000KT 10SM CLR 11/11 A3021 RMK AO2 T01050105
K5A6 200430Z AUTO 00000KT 10SM CLR 11/11 A3022 RMK AO2 T01070107
K5A6 200415Z AUTO 00000KT 7SM CLR 10/10 A3022 RMK AO2 T01000100
K5A6 200355Z AUTO 00000KT 10SM CLR 11/11 A3023 RMK AO2 T01120112
K5A6 200335Z AUTO 00000KT 10SM CLR 11/11 A3022 RMK AO2 T01100110
K5A6 200315Z AUTO 00000KT 10SM CLR 12/12 A3022 RMK AO2 T01160116
K5A6 200255Z AUTO 00000KT 10SM CLR 12/12 A3021 RMK AO2 T01190119
K5A6 200235Z AUTO 00000KT 10SM CLR 12/12 A3021 RMK AO2 T01220121
K5A6 200215Z AUTO 00000KT 10SM CLR 13/13 A3020 RMK AO2 T01320130
K5A6 200200Z AUTO 00000KT 10SM CLR 14/13 A3020 RMK AO2 LTG DSNT SW T01370130
K5A6 200135Z AUTO 00000KT 10SM CLR 14/14 A3020 RMK AO2 T01420139
K5A6 200115Z AUTO 00000KT 10SM CLR 15/13 A3020 RMK AO2 T01460131
K5A6 200055Z AUTO 00000KT 10SM CLR 15/14 A3020 RMK AO2 T01500137
K5A6 200035Z AUTO 00000KT 10SM CLR 16/14 A3020 RMK AO2 T01550137
K5A6 200015Z AUTO 00000KT 10SM CLR 18/14 A3020 RMK AO2 T01750135
K5A6 192355Z AUTO 00000KT 10SM CLR 18/13 A3020 RMK AO2 T01830128 10255 20183
K5A6 192330Z AUTO 00000KT 10SM CLR 19/13 A3018 RMK AO2 T01910133
K5A6 192310Z AUTO 00000KT 10SM CLR 20/14 A3018 RMK AO2 T01950143
K5A6 192255Z AUTO 00000KT 10SM CLR 20/14 A3018 RMK AO2 T02020144
K5A6 192235Z AUTO 00000KT 10SM CLR 23/12 A3018 RMK AO2 T02260123
K5A6 192215Z AUTO 00000KT 10SM CLR 24/12 A3017 RMK AO2 T02360117
K5A6 192155Z AUTO 07003KT 10SM CLR 24/12 A3017 RMK AO2 T02430116
K5A6 192135Z AUTO 07003KT 10SM CLR 24/11 A3018 RMK AO2 T02430112
K5A6 192115Z AUTO 00000KT 10SM CLR 25/11 A3018 RMK AO2 T02490113
K5A6 192055Z AUTO 00000KT 10SM CLR 25/11 A3019 RMK AO2 T02520105